RPC2670 RPVB-ZZZZ
Flight info
| Callsign | RPC2670 |
|---|---|
| Flight time | N/A |
| Altitude | 5500 |
| Route | VFR |
| Aircraft | C172/L-SD/C |
Departure
| Time | 2026-04-30 09:07 |
|---|---|
| Airport | Bacolod-Silay International Airport (RPVB) |
Arrival
| Time | N/A |
|---|---|
| Airport | ZZZZ |
| Time | Latitude | Longitude | Altitude | Speed | Heading |
|---|---|---|---|---|---|
| 2026-04-30 08:53 | 10.77316 | 123.01398 | 81 ft | 0 kts | 30° |
| 2026-04-30 09:00 | 10.77309 | 123.01406 | 83 ft | 6 kts | 196° |
| 2026-04-30 09:01 | 10.77298 | 123.01417 | 81 ft | 0 kts | 24° |
| 2026-04-30 09:03 | 10.77299 | 123.01417 | 81 ft | 1 kts | 25° |
| 2026-04-30 09:03 | 10.77314 | 123.01444 | 82 ft | 8 kts | 100° |
| 2026-04-30 09:03 | 10.77361 | 123.01483 | 87 ft | 7 kts | 30° |
| 2026-04-30 09:03 | 10.77359 | 123.01529 | 88 ft | 11 kts | 122° |
| 2026-04-30 09:04 | 10.77311 | 123.01609 | 88 ft | 15 kts | 121° |
| 2026-04-30 09:04 | 10.77218 | 123.01645 | 88 ft | 18 kts | 202° |
| 2026-04-30 09:04 | 10.77094 | 123.01576 | 90 ft | 22 kts | 210° |
| 2026-04-30 09:04 | 10.76971 | 123.01503 | 90 ft | 15 kts | 213° |
| 2026-04-30 09:05 | 10.76912 | 123.01435 | 91 ft | 11 kts | 166° |
| 2026-04-30 09:05 | 10.76909 | 123.01466 | 91 ft | 0 kts | 30° |
| 2026-04-30 09:05 | 10.76951 | 123.01491 | 93 ft | 24 kts | 30° |
| 2026-04-30 09:05 | 10.77207 | 123.01638 | 91 ft | 57 kts | 31° |
| 2026-04-30 09:06 | 10.77590 | 123.01853 | 148 ft | 68 kts | 32° |
| 2026-04-30 09:06 | 10.78038 | 123.02104 | 230 ft | 77 kts | 31° |
| 2026-04-30 09:06 | 10.78522 | 123.02366 | 357 ft | 81 kts | 30° |
| 2026-04-30 09:06 | 10.79018 | 123.02657 | 434 ft | 83 kts | 44° |
| 2026-04-30 09:07 | 10.79239 | 123.03209 | 506 ft | 93 kts | 89° |
| 2026-04-30 09:07 | 10.78972 | 123.03805 | 584 ft | 98 kts | 135° |
| 2026-04-30 09:07 | 10.78341 | 123.04051 | 667 ft | 104 kts | 173° |
| 2026-04-30 09:07 | 10.77615 | 123.03945 | 747 ft | 107 kts | 188° |
| 2026-04-30 09:08 | 10.76883 | 123.03757 | 779 ft | 107 kts | 190° |
| 2026-04-30 09:08 | 10.76174 | 123.03560 | 849 ft | 105 kts | 188° |
| 2026-04-30 09:08 | 10.75459 | 123.03454 | 941 ft | 103 kts | 185° |
| 2026-04-30 09:08 | 10.74749 | 123.03333 | 1065 ft | 103 kts | 187° |
| 2026-04-30 09:09 | 10.74046 | 123.03213 | 1205 ft | 103 kts | 184° |
| 2026-04-30 09:09 | 10.73332 | 123.03088 | 1257 ft | 105 kts | 186° |
| 2026-04-30 09:09 | 10.72594 | 123.02949 | 1388 ft | 111 kts | 191° |
| 2026-04-30 09:09 | 10.71859 | 123.02792 | 1576 ft | 105 kts | 187° |
| 2026-04-30 09:10 | 10.71116 | 123.02671 | 1580 ft | 112 kts | 185° |
| 2026-04-30 09:10 | 10.70341 | 123.02511 | 1619 ft | 115 kts | 192° |
| 2026-04-30 09:10 | 10.69569 | 123.02313 | 1667 ft | 111 kts | 194° |
| 2026-04-30 09:10 | 10.68831 | 123.02098 | 1713 ft | 109 kts | 196° |
| 2026-04-30 09:11 | 10.68124 | 123.01856 | 1707 ft | 107 kts | 199° |
| 2026-04-30 09:11 | 10.67411 | 123.01582 | 1700 ft | 113 kts | 202° |
| 2026-04-30 09:11 | 10.66648 | 123.01355 | 1719 ft | 115 kts | 179° |
| 2026-04-30 09:11 | 10.65886 | 123.01457 | 1762 ft | 108 kts | 165° |
| 2026-04-30 09:12 | 10.65162 | 123.01585 | 1825 ft | 103 kts | 166° |
| 2026-04-30 09:12 | 10.64463 | 123.01707 | 1920 ft | 100 kts | 171° |
| 2026-04-30 09:12 | 10.63767 | 123.01812 | 1977 ft | 101 kts | 174° |
| 2026-04-30 09:12 | 10.63097 | 123.01964 | 2026 ft | 97 kts | 147° |
| 2026-04-30 09:13 | 10.62663 | 123.02431 | 2078 ft | 89 kts | 120° |
| 2026-04-30 09:13 | 10.62378 | 123.02982 | 2083 ft | 90 kts | 112° |
| 2026-04-30 09:13 | 10.62118 | 123.03562 | 2155 ft | 89 kts | 114° |
| 2026-04-30 09:13 | 10.61807 | 123.04093 | 2233 ft | 88 kts | 114° |
| 2026-04-30 09:14 | 10.61538 | 123.04660 | 2285 ft | 88 kts | 113° |
| 2026-04-30 09:14 | 10.61263 | 123.05194 | 2295 ft | 89 kts | 119° |
| 2026-04-30 09:14 | 10.60936 | 123.05749 | 2367 ft | 88 kts | 114° |
| 2026-04-30 09:14 | 10.60657 | 123.06284 | 2443 ft | 84 kts | 115° |
| 2026-04-30 09:15 | 10.60361 | 123.06803 | 2462 ft | 87 kts | 115° |
| 2026-04-30 09:15 | 10.60070 | 123.07344 | 2530 ft | 86 kts | 115° |
| 2026-04-30 09:15 | 10.59808 | 123.07876 | 2561 ft | 84 kts | 112° |
| 2026-04-30 09:15 | 10.59614 | 123.08434 | 2625 ft | 84 kts | 100° |
| 2026-04-30 09:16 | 10.59490 | 123.09012 | 2657 ft | 84 kts | 102° |
| 2026-04-30 09:16 | 10.59335 | 123.09594 | 2691 ft | 86 kts | 104° |
| 2026-04-30 09:16 | 10.59169 | 123.10159 | 2787 ft | 82 kts | 102° |
| 2026-04-30 09:16 | 10.59049 | 123.10734 | 2800 ft | 88 kts | 103° |
| 2026-04-30 09:17 | 10.58915 | 123.11312 | 2899 ft | 84 kts | 103° |
| 2026-04-30 09:17 | 10.58796 | 123.11909 | 3017 ft | 84 kts | 97° |
| 2026-04-30 09:17 | 10.58671 | 123.12501 | 3133 ft | 88 kts | 105° |
| 2026-04-30 09:17 | 10.58477 | 123.13081 | 3255 ft | 84 kts | 108° |
| 2026-04-30 09:18 | 10.58268 | 123.13624 | 3302 ft | 82 kts | 110° |
| 2026-04-30 09:18 | 10.58062 | 123.14162 | 3325 ft | 83 kts | 109° |
| 2026-04-30 09:18 | 10.57858 | 123.14719 | 3372 ft | 86 kts | 105° |
| 2026-04-30 09:18 | 10.57662 | 123.15316 | 3439 ft | 91 kts | 106° |
| 2026-04-30 09:19 | 10.57472 | 123.15923 | 3538 ft | 89 kts | 103° |
| 2026-04-30 09:19 | 10.57265 | 123.16539 | 3522 ft | 94 kts | 105° |
| 2026-04-30 09:19 | 10.57054 | 123.17173 | 3508 ft | 94 kts | 107° |
| 2026-04-30 09:19 | 10.56843 | 123.17802 | 3513 ft | 95 kts | 105° |
| 2026-04-30 09:20 | 10.56646 | 123.18443 | 3513 ft | 94 kts | 105° |
| 2026-04-30 09:20 | 10.56457 | 123.19080 | 3545 ft | 95 kts | 103° |
| 2026-04-30 09:20 | 10.56291 | 123.19734 | 3582 ft | 97 kts | 101° |
| 2026-04-30 09:20 | 10.56136 | 123.20403 | 3589 ft | 98 kts | 101° |
| 2026-04-30 09:21 | 10.55980 | 123.21067 | 3596 ft | 94 kts | 100° |
| 2026-04-30 09:21 | 10.55860 | 123.21725 | 3581 ft | 96 kts | 99° |
| 2026-04-30 09:21 | 10.55733 | 123.22385 | 3605 ft | 95 kts | 98° |
| 2026-04-30 09:21 | 10.55644 | 123.23053 | 3636 ft | 95 kts | 92° |
| 2026-04-30 09:22 | 10.55631 | 123.23705 | 3666 ft | 93 kts | 94° |
| 2026-04-30 09:22 | 10.55541 | 123.24371 | 3672 ft | 93 kts | 99° |
| 2026-04-30 09:22 | 10.55430 | 123.25002 | 3612 ft | 92 kts | 97° |
| 2026-04-30 09:22 | 10.55236 | 123.25628 | 3590 ft | 93 kts | 108° |
| 2026-04-30 09:23 | 10.54999 | 123.26224 | 3577 ft | 92 kts | 109° |
| 2026-04-30 09:23 | 10.54754 | 123.26845 | 3575 ft | 96 kts | 108° |
| 2026-04-30 09:23 | 10.54526 | 123.27488 | 3583 ft | 97 kts | 107° |
| 2026-04-30 09:23 | 10.54296 | 123.28124 | 3608 ft | 95 kts | 109° |
| 2026-04-30 09:24 | 10.54043 | 123.28750 | 3617 ft | 95 kts | 110° |
| 2026-04-30 09:24 | 10.53805 | 123.29356 | 3630 ft | 89 kts | 106° |
| 2026-04-30 09:24 | 10.53546 | 123.29941 | 3585 ft | 93 kts | 116° |
| 2026-04-30 09:24 | 10.53170 | 123.30488 | 3525 ft | 93 kts | 122° |
| 2026-04-30 09:25 | 10.52826 | 123.31030 | 3481 ft | 90 kts | 116° |
| 2026-04-30 09:25 | 10.52509 | 123.31577 | 3450 ft | 92 kts | 117° |
| 2026-04-30 09:25 | 10.52179 | 123.32135 | 3499 ft | 91 kts | 114° |
| 2026-04-30 09:25 | 10.51906 | 123.32727 | 3492 ft | 94 kts | 111° |
| 2026-04-30 09:26 | 10.51621 | 123.33350 | 3470 ft | 99 kts | 111° |
| 2026-04-30 09:26 | 10.51332 | 123.33989 | 3427 ft | 98 kts | 112° |
| 2026-04-30 09:26 | 10.51044 | 123.34612 | 3335 ft | 97 kts | 111° |
| 2026-04-30 09:26 | 10.50782 | 123.35247 | 3212 ft | 98 kts | 108° |
| 2026-04-30 09:27 | 10.50513 | 123.35876 | 3143 ft | 98 kts | 111° |
| 2026-04-30 09:27 | 10.50251 | 123.36503 | 3073 ft | 95 kts | 99° |
| 2026-04-30 09:27 | 10.50141 | 123.37176 | 2915 ft | 97 kts | 93° |
| 2026-04-30 09:27 | 10.50111 | 123.37863 | 2731 ft | 97 kts | 91° |
| 2026-04-30 09:28 | 10.50097 | 123.38554 | 2553 ft | 98 kts | 86° |
| 2026-04-30 09:28 | 10.50124 | 123.39248 | 2411 ft | 99 kts | 84° |
| 2026-04-30 09:28 | 10.50159 | 123.39937 | 2245 ft | 98 kts | 90° |
| 2026-04-30 09:28 | 10.50069 | 123.40636 | 2063 ft | 101 kts | 100° |
| 2026-04-30 09:29 | 10.49849 | 123.41297 | 1925 ft | 99 kts | 110° |
| 2026-04-30 09:29 | 10.49525 | 123.41919 | 1685 ft | 101 kts | 117° |
| 2026-04-30 09:29 | 10.49164 | 123.42521 | 1425 ft | 101 kts | 118° |
| 2026-04-30 09:29 | 10.48714 | 123.43096 | 1195 ft | 103 kts | 128° |
| 2026-04-30 09:30 | 10.48376 | 123.43697 | 963 ft | 98 kts | 91° |
| 2026-04-30 09:30 | 10.48493 | 123.44328 | 794 ft | 83 kts | 78° |
| 2026-04-30 09:30 | 10.48845 | 123.44708 | 579 ft | 80 kts | 11° |
| 2026-04-30 09:30 | 10.49368 | 123.44793 | 474 ft | 76 kts | 12° |
| 2026-04-30 09:31 | 10.49884 | 123.44930 | 428 ft | 79 kts | 15° |
| 2026-04-30 09:31 | 10.50453 | 123.44960 | 231 ft | 83 kts | 353° |
| 2026-04-30 09:31 | 10.50998 | 123.44843 | 35 ft | 76 kts | 352° |
| 2026-04-30 09:31 | 10.51440 | 123.44743 | -13 ft | 52 kts | 347° |
| 2026-04-30 09:32 | 10.51710 | 123.44679 | -6 ft | 28 kts | 346° |
| 2026-04-30 09:32 | 10.51814 | 123.44641 | -4 ft | 6 kts | 32° |
| 2026-04-30 09:32 | 10.51779 | 123.44662 | -5 ft | 9 kts | 167° |
| 2026-04-30 09:32 | 10.51737 | 123.44696 | -5 ft | 6 kts | 136° |
| 2026-04-30 09:33 | 10.51728 | 123.44697 | -5 ft | 0 kts | 209° |